createdAt,value
2023-03-16T00:00:55.489Z,101605.94
2023-03-16T00:03:31.049Z,101604.38
2023-03-16T00:05:58.715Z,101607.88
2023-03-16T00:08:27.196Z,101614.47
2023-03-16T00:10:54.399Z,101617.84
2023-03-16T00:13:25.574Z,101614.38
2023-03-16T00:15:53.853Z,101620.03
2023-03-16T00:18:22.444Z,101625.44
2023-03-16T00:20:53.267Z,101619.69
2023-03-16T00:23:20.623Z,101623.81
2023-03-16T00:25:48.223Z,101624.41
2023-03-16T00:28:18.124Z,101624.25
2023-03-16T00:30:47.586Z,101628.84
2023-03-16T00:33:15.121Z,101625.13
2023-03-16T00:35:50.498Z,101625.25
2023-03-16T00:38:20.017Z,101621.75
2023-03-16T00:40:48.591Z,101621.59
2023-03-16T00:43:19.017Z,101628.09
2023-03-16T00:45:47.124Z,101632.53
2023-03-16T00:48:14.733Z,101632.44
2023-03-16T00:50:43.417Z,101627.16
2023-03-16T00:53:11.133Z,101628.59
2023-03-16T00:55:38.801Z,101636.19
2023-03-16T00:58:08.816Z,101632.69
2023-03-16T01:00:36.805Z,101631.75
2023-03-16T01:03:04.158Z,101637.00
2023-03-16T01:05:34.043Z,101632.41
2023-03-16T01:08:04.882Z,101633.41
2023-03-16T01:10:32.674Z,101634.84
2023-03-16T01:13:01.263Z,101630.50
2023-03-16T01:15:36.991Z,101630.53
2023-03-16T01:18:05.281Z,101627.50
2023-03-16T01:20:33.863Z,101632.19
2023-03-16T01:23:02.587Z,101631.25
2023-03-16T01:25:29.912Z,101618.00
2023-03-16T01:27:59.646Z,101623.78
2023-03-16T01:30:27.324Z,101625.00
2023-03-16T01:32:54.777Z,101623.28
2023-03-16T01:35:22.016Z,101622.22
2023-03-16T01:37:50.367Z,101626.78
2023-03-16T01:40:19.106Z,101615.59
2023-03-16T01:42:50.695Z,101610.31
2023-03-16T01:45:39.262Z,101611.63
2023-03-16T01:48:06.354Z,101612.13
2023-03-16T01:50:33.903Z,101613.19
2023-03-16T01:53:09.530Z,101617.66
2023-03-16T01:55:37.076Z,101613.31
2023-03-16T01:58:04.421Z,101608.13
2023-03-16T02:00:33.506Z,101605.75
2023-03-16T02:03:05.206Z,101610.44
2023-03-16T02:05:34.072Z,101609.69
2023-03-16T02:08:03.867Z,101612.56
2023-03-16T02:10:31.284Z,101604.53
2023-03-16T02:13:18.856Z,101608.97
2023-03-16T02:15:45.942Z,101605.97
2023-03-16T02:18:13.668Z,101612.81
2023-03-16T02:20:49.112Z,101605.84
2023-03-16T02:23:19.832Z,101603.56
2023-03-16T02:25:49.805Z,101601.63
2023-03-16T02:28:26.533Z,101608.13
2023-03-16T02:30:54.127Z,101606.44
2023-03-16T02:33:21.688Z,101613.66
2023-03-16T02:35:49.137Z,101601.50
2023-03-16T02:38:23.771Z,101607.53
2023-03-16T02:41:17.868Z,101607.72
2023-03-16T02:43:49.434Z,101604.84
2023-03-16T02:46:18.222Z,101605.31
2023-03-16T02:48:49.491Z,101606.84
2023-03-16T02:51:16.898Z,101611.03
2023-03-16T02:53:44.724Z,101607.09
2023-03-16T02:56:11.831Z,101602.78
2023-03-16T02:58:51.568Z,101610.97
2023-03-16T03:01:19.076Z,101604.84
2023-03-16T03:03:46.511Z,101612.13
2023-03-16T03:06:14.059Z,101611.66
2023-03-16T03:08:41.364Z,101609.06
2023-03-16T03:11:09.903Z,101608.38
2023-03-16T03:13:45.073Z,101605.53
2023-03-16T03:16:12.341Z,101609.13
2023-03-16T03:18:39.477Z,101600.66
2023-03-16T03:21:10.174Z,101610.06
2023-03-16T03:23:37.638Z,101607.75
2023-03-16T03:26:05.051Z,101618.88
2023-03-16T03:28:37.400Z,101621.13
2023-03-16T03:31:05.130Z,101617.41
2023-03-16T03:33:34.789Z,101608.53
2023-03-16T03:36:03.555Z,101604.00
2023-03-16T03:38:31.719Z,101605.81
2023-03-16T03:41:00.693Z,101606.66
2023-03-16T03:43:27.914Z,101612.69
2023-03-16T03:45:59.062Z,101609.09
2023-03-16T03:48:26.588Z,101612.09
2023-03-16T03:50:54.228Z,101616.78
2023-03-16T03:53:21.683Z,101616.25
2023-03-16T03:55:51.573Z,101613.31
2023-03-16T03:58:19.877Z,101616.19
2023-03-16T04:00:47.332Z,101620.53
2023-03-16T04:03:15.397Z,101614.22
2023-03-16T04:05:43.917Z,101610.69
2023-03-16T04:08:12.016Z,101614.75
2023-03-16T04:10:39.447Z,101615.03
2023-03-16T04:13:13.660Z,101616.50
2023-03-16T04:15:41.680Z,101619.03
2023-03-16T04:18:09.456Z,101620.97
2023-03-16T04:20:38.684Z,101613.59
2023-03-16T04:23:07.238Z,101616.63
2023-03-16T04:25:34.995Z,101614.75
2023-03-16T04:28:02.434Z,101607.19
2023-03-16T04:30:33.226Z,101601.94
2023-03-16T04:33:03.339Z,101603.53
2023-03-16T04:35:32.931Z,101602.81
2023-03-16T04:38:00.341Z,101606.19
2023-03-16T04:40:28.017Z,101604.50
2023-03-16T04:42:56.035Z,101605.06
2023-03-16T04:45:26.932Z,101605.81
2023-03-16T04:47:54.345Z,101605.00
2023-03-16T04:50:22.847Z,101605.00
2023-03-16T04:52:50.652Z,101600.91
2023-03-16T04:55:18.475Z,101600.78
2023-03-16T04:57:46.150Z,101601.25
2023-03-16T05:00:19.345Z,101601.63
2023-03-16T05:02:47.824Z,101602.00
2023-03-16T05:05:15.512Z,101604.06
2023-03-16T05:07:43.218Z,101602.47
2023-03-16T05:10:13.980Z,101603.69
2023-03-16T05:12:41.359Z,101597.06
2023-03-16T05:15:10.647Z,101597.44
2023-03-16T05:17:40.221Z,101597.31
2023-03-16T05:20:09.040Z,101602.09
2023-03-16T05:22:36.695Z,101603.06
2023-03-16T05:25:05.712Z,101606.50
2023-03-16T05:27:35.620Z,101593.81
2023-03-16T05:30:03.756Z,101595.53
2023-03-16T05:32:32.272Z,101593.38
2023-03-16T05:35:03.461Z,101591.81
2023-03-16T05:37:32.404Z,101597.78
2023-03-16T05:40:05.460Z,101601.41
2023-03-16T05:42:32.996Z,101601.19
2023-03-16T05:45:00.998Z,101603.84
2023-03-16T05:47:28.773Z,101618.97
2023-03-16T05:49:59.715Z,101621.84
2023-03-16T05:52:28.394Z,101621.59
2023-03-16T05:55:01.702Z,101622.66
2023-03-16T05:57:29.566Z,101622.31
2023-03-16T05:59:58.028Z,101629.25
2023-03-16T06:02:28.096Z,101628.34
2023-03-16T06:04:55.159Z,101630.72
2023-03-16T06:07:23.419Z,101636.56
2023-03-16T06:09:53.222Z,101630.75
2023-03-16T06:12:22.215Z,101633.19
2023-03-16T06:14:53.129Z,101632.91
2023-03-16T06:17:24.071Z,101622.81
2023-03-16T06:19:55.122Z,101623.66
2023-03-16T06:22:22.217Z,101626.38
2023-03-16T06:24:55.946Z,101627.03
2023-03-16T06:27:26.768Z,101623.09
2023-03-16T06:29:54.418Z,101633.97
2023-03-16T06:32:23.046Z,101629.00
2023-03-16T06:34:51.835Z,101632.63
2023-03-16T06:37:20.310Z,101637.13
2023-03-16T06:39:48.921Z,101637.81
2023-03-16T06:42:16.303Z,101638.47
2023-03-16T06:44:44.019Z,101638.78
2023-03-16T06:47:12.147Z,101644.69
2023-03-16T06:49:42.009Z,101647.66
2023-03-16T06:52:14.953Z,101639.94
2023-03-16T06:54:43.652Z,101637.59
2023-03-16T06:57:10.809Z,101637.34
2023-03-16T06:59:40.161Z,101637.28
2023-03-16T07:02:07.474Z,101647.69
2023-03-16T07:04:36.508Z,101645.78
2023-03-16T07:07:08.981Z,101637.28
2023-03-16T07:09:39.113Z,101638.44
2023-03-16T07:12:07.886Z,101636.50
2023-03-16T07:14:35.531Z,101623.28
2023-03-16T07:17:02.958Z,101639.66
2023-03-16T07:19:30.348Z,101637.78
2023-03-16T07:22:03.855Z,101644.38
2023-03-16T07:24:31.316Z,101639.31
2023-03-16T07:27:02.411Z,101649.13
2023-03-16T07:29:30.065Z,101646.63
2023-03-16T07:31:58.877Z,101655.16
2023-03-16T07:34:26.705Z,101657.84
2023-03-16T07:36:54.430Z,101652.38
2023-03-16T07:39:22.406Z,101652.22
2023-03-16T07:41:50.364Z,101654.19
2023-03-16T07:44:17.637Z,101650.81
2023-03-16T07:46:47.338Z,101664.28
2023-03-16T07:49:17.143Z,101648.84
2023-03-16T07:51:44.850Z,101651.66
2023-03-16T07:54:12.356Z,101656.03
2023-03-16T07:56:49.625Z,101664.56
2023-03-16T07:59:20.418Z,101657.81
2023-03-16T08:01:47.777Z,101666.25
2023-03-16T08:04:16.610Z,101654.19
2023-03-16T08:06:43.877Z,101658.81
2023-03-16T08:09:13.136Z,101662.19
2023-03-16T08:11:41.915Z,101659.06
2023-03-16T08:14:09.423Z,101650.34
2023-03-16T08:16:37.825Z,101656.78
2023-03-16T08:19:13.360Z,101652.03
2023-03-16T08:21:59.961Z,101642.91
2023-03-16T08:24:28.667Z,101648.53
2023-03-16T08:26:57.685Z,101661.81
2023-03-16T08:29:26.037Z,101648.91
2023-03-16T08:31:57.845Z,101658.66
2023-03-16T08:34:25.483Z,101650.44
2023-03-16T08:36:52.922Z,101653.59
2023-03-16T08:39:20.659Z,101651.06
2023-03-16T08:41:49.630Z,101645.09
2023-03-16T08:44:18.113Z,101647.63
2023-03-16T08:46:47.771Z,101642.09
2023-03-16T08:49:15.282Z,101642.81
2023-03-16T08:51:45.042Z,101648.91
2023-03-16T08:54:12.452Z,101645.72
2023-03-16T08:56:40.877Z,101647.44
2023-03-16T08:59:16.786Z,101649.69
2023-03-16T09:01:50.843Z,101652.03
2023-03-16T09:04:32.851Z,101648.72
2023-03-16T09:07:09.684Z,101639.78
2023-03-16T09:09:36.950Z,101632.97
2023-03-16T09:12:04.468Z,101645.59
2023-03-16T09:14:32.003Z,101636.97
2023-03-16T09:17:00.015Z,101639.06
2023-03-16T09:19:40.777Z,101629.66
2023-03-16T09:22:17.783Z,101634.59
2023-03-16T09:24:46.168Z,101642.09
2023-03-16T09:27:13.484Z,101630.34
2023-03-16T09:29:44.060Z,101634.50
2023-03-16T09:32:11.628Z,101625.28
2023-03-16T09:34:39.495Z,101621.50
2023-03-16T09:37:09.038Z,101625.47
2023-03-16T09:39:37.841Z,101615.59
2023-03-16T09:42:16.050Z,101617.09
2023-03-16T09:45:02.126Z,101613.25
2023-03-16T09:47:37.356Z,101614.38
2023-03-16T09:50:07.457Z,101608.78
2023-03-16T09:52:56.013Z,101610.53
2023-03-16T09:55:31.970Z,101604.97
2023-03-16T09:58:00.201Z,101605.06
2023-03-16T10:00:48.871Z,101606.25
2023-03-16T10:03:31.991Z,101595.53
2023-03-16T10:06:04.010Z,101590.19
2023-03-16T10:08:38.141Z,101591.53
2023-03-16T10:11:15.241Z,101592.53
2023-03-16T10:13:48.953Z,101587.44
2023-03-16T10:16:18.977Z,101574.72
2023-03-16T10:18:47.852Z,101581.44
2023-03-16T10:21:25.724Z,101585.88
2023-03-16T10:23:53.011Z,101576.03
2023-03-16T10:26:49.045Z,101584.09
2023-03-16T10:29:17.693Z,101580.78
2023-03-16T10:31:50.657Z,101575.25
2023-03-16T10:34:19.552Z,101579.03
2023-03-16T10:36:48.374Z,101572.06
2023-03-16T10:39:17.770Z,101571.94
2023-03-16T10:41:46.274Z,101584.13
2023-03-16T10:44:23.050Z,101573.41
2023-03-16T10:46:54.336Z,101566.38
2023-03-16T10:49:23.034Z,101573.75
2023-03-16T10:51:51.126Z,101574.38
2023-03-16T10:54:28.457Z,101559.03
2023-03-16T10:56:58.088Z,101563.19
2023-03-16T10:59:28.117Z,101563.91
2023-03-16T11:01:59.080Z,101546.13
2023-03-16T11:04:27.233Z,101555.00
2023-03-16T11:06:58.306Z,101557.91
2023-03-16T11:09:35.676Z,101553.31
2023-03-16T11:12:16.513Z,101542.78
2023-03-16T11:14:45.325Z,101547.19
2023-03-16T11:17:20.850Z,101554.53
2023-03-16T11:19:54.964Z,101550.91
2023-03-16T11:22:26.052Z,101535.91
2023-03-16T11:25:06.959Z,101529.88
2023-03-16T11:27:39.964Z,101527.88
2023-03-16T11:30:21.747Z,101519.28
2023-03-16T11:32:54.504Z,101508.81
